Nearby METAR Reports

 

KAGC - Pittsburgh/Alleg, Pennsylvania, USA
Distance from station: N 14mi, 23km
Updated: Wed, Jan-20-2021 1:37pm EST
Overcast
Overcast
 Wind from NNW
Wind: NNW 9 mph , 15 km/h, Gust: 20 mph , 31 km/h
Temperature: 27°F , -3°C
Wind Chill: 18°F , -8°C
Dew Point: 16°F , -9°C
Humidity: 64%
Barometer: 30.14 inHg , 1020.7 hPa
Clouds: Overcast
Visibility: 10 miles , 16 km
Cloud details: Mostly cloudy 2800 ft
Overcast 3800 ft
2021/01/20 18:37 KAGC 201837Z 33008G17KT 290V010 10SM BKN028 OVC038 M03/M09 A3014 RMK AO2 SNB02E18 P0000 T10281089
KAFJ - Washington, Pennsylvania, USA
Distance from station: W 17mi, 28km
Updated: Wed, Jan-20-2021 1:17pm EST
Overcast
Overcast
 Wind from WNW
Wind: WNW 15 mph , 24 km/h, Gust: 23 mph , 37 km/h
Temperature: 28°F , -2°C
Wind Chill: 16°F , -9°C
Dew Point: 18°F , -8°C
Humidity: 64%
Barometer: 30.19 inHg , 1022.4 hPa
Clouds: Overcast
Visibility: 10 miles , 16 km
Cloud details: Overcast 3000 ft
2021/01/20 18:17 KAFJ 201817Z AUTO 29013G20KT 10SM OVC030 M02/M08 A3019 RMK AO2 FZRANO
 
KLBE - Latrobe, Pennsylvania, USA
Distance from station: ENE 30mi, 48km
Updated: Wed, Jan-20-2021 1:47pm EST
Mostly cloudy
Mostly cloudy
 Wind from W
Wind: W 17 mph , 28 km/h, Gust: 23 mph , 37 km/h
Temperature: 28°F , -2°C
Wind Chill: 16°F , -9°C
Dew Point: 14°F , -10°C
Humidity: 55%
Barometer: 30.14 inHg , 1020.7 hPa
Clouds: Mostly cloudy
Visibility: 20 miles , 32 km
Cloud details: Mostly cloudy 4000 ft
2021/01/20 18:47 KLBE 201847Z 27015G20KT 20SM BKN040 M02/M10 A3014
KPIT - Pittsburgh, Pennsylvania, USA
Distance from station: NW 30mi, 48km
Updated: Wed, Jan-20-2021 12:51pm EST
Light snow, Overcast
Light snow, Overcast
 Wind from W
Wind: W 15 mph , 24 km/h
Temperature: 27°F , -3°C
Wind Chill: 15°F , -9°C
Dew Point: 16°F , -9°C
Humidity: 64%
Barometer: 30.15 inHg , 1021 hPa
Summary: Light Snow
Clouds: Overcast
Visibility: 10 miles , 16 km
Cloud details: Few Clouds 2500 ft
Overcast 3200 ft
2021/01/20 17:51 KPIT 201751Z 28013KT 10SM -SN FEW025 OVC032 M03/M09 A3015 RMK AO2 SNB50 SLP233 BINOVC P0000 60000 T10331089 11017 21033 50007
 
KMGW - Morgantown, West Virginia, USA
Distance from station: S 34mi, 55km
Updated: Wed, Jan-20-2021 12:53pm EST
Mostly cloudy
Mostly cloudy
 Wind from WNW
Wind: WNW 12 mph , 19 km/h, Gust: 20 mph , 31 km/h
Temperature: 34°F , 1°C
Wind Chill: 25°F , -4°C
Dew Point: 18°F , -8°C
Humidity: 51%
Barometer: 30.15 inHg , 1021 hPa
Clouds: Mostly cloudy
Visibility: 10 miles , 16 km
Cloud details: Partly cloudy 3900 ft
Mostly cloudy 4900 ft
2021/01/20 17:53 KMGW 201753Z 29010G17KT 10SM SCT039 BKN049 01/M08 A3015 RMK AO2 SLP221 60005 T00061083 10011 21011 50003
KHLG - Wheeling, West Virginia, USA
Distance from station: W 37mi, 60km
Updated: Wed, Jan-20-2021 12:53pm EST
Overcast
Overcast
 Wind from W
Wind: W 15 mph , 24 km/h, Gust: 24 mph , 39 km/h
Temperature: 28°F , -2°C
Wind Chill: 16°F , -9°C
Dew Point: 12°F , -11°C
Humidity: 51%
Barometer: 30.18 inHg , 1022 hPa
Clouds: Overcast
Visibility: 10 miles , 16 km
Cloud details: Overcast 3100 ft
2021/01/20 17:53 KHLG 201753Z 26013G21KT 10SM OVC031 M02/M11 A3018 RMK AO2 SLP235 60000 T10221106 11017 21033 50008
 
KBTP - Butler Co., Pennsylvania, USA
Distance from station: N 43mi, 69km
Updated: Wed, Jan-20-2021 12:56pm EST
Overcast
Overcast
 Wind from W
Wind: W 13 mph , 20 km/h, Gust: 23 mph , 37 km/h
Temperature: 25°F , -4°C
Wind Chill: 13°F , -11°C
Dew Point: 16°F , -9°C
Humidity: 69%
Clouds: Overcast
Visibility: 10 miles , 16 km
Cloud details: Overcast 3200 ft
2021/01/20 17:56 KBTP 201756Z AUTO 28011G20KT 10SM OVC032 M04/M09 RMK AO2 SNE44 SLPNO P0000 60000 T10391094 11022 21039 FZRANO $
KBVI - Beaver Falls Arp, Pennsylvania, USA
Distance from station: NNW 49mi, 79km
Updated: Wed, Jan-20-2021 1:35pm EST
Light snow, Overcast
Light snow, Overcast
 Wind from NW
Wind: NW 12 mph , 19 km/h
Temperature: 27°F , -3°C
Wind Chill: 16°F , -9°C
Dew Point: 14°F , -10°C
Humidity: 59%
Barometer: 30.16 inHg , 1021.3 hPa
Summary: Light Snow
Clouds: Overcast
Visibility: 10 miles , 16 km
Cloud details: Overcast 3100 ft
2021/01/20 18:35 KBVI 201835Z AUTO 31010KT 10SM -SN OVC031 M03/M10 A3016 RMK AO2 T10341096
 
K2G4 - Garrett Co, Maryland, USA
Distance from station: SE 51mi, 82km
Updated: Wed, Jan-20-2021 1:35pm EST
Mostly cloudy
Mostly cloudy
 Wind from W
Wind: W 10 mph , 17 km/h, Gust: 25 mph , 41 km/h
Temperature: 23°F , -5°C
Wind Chill: 13°F , -11°C
Dew Point: 14°F , -10°C
Humidity: 68%
Barometer: 29.98 inHg , 1015.2 hPa
Clouds: Mostly cloudy
Visibility: 7 miles , 11 km
Cloud details: Mostly cloudy 2200 ft
Mostly cloudy 2900 ft
2021/01/20 18:35 K2G4 201835Z AUTO 28009G22KT 7SM BKN022 BKN029 M05/M10 A2998 RMK AO1
KIDI - Indiana/Stewart, Pennsylvania, USA
Distance from station: NE 56mi, 90km
Updated: Wed, Jan-20-2021 1:35pm EST
Overcast
Overcast
 Wind from WNW
Wind: WNW 14 mph , 22 km/h, Gust: 24 mph , 39 km/h
Temperature: 25°F , -4°C
Wind Chill: 13°F , -11°C
Dew Point: 14°F , -10°C
Humidity: 63%
Barometer: 30.15 inHg , 1021 hPa
Clouds: Overcast
Visibility: 9 miles , 14 km
Cloud details: Overcast 3300 ft
2021/01/20 18:35 KIDI 201835Z AUTO 29012G21KT 9SM OVC033 M04/M10 A3015 RMK A01
 
KJST - Johnstown, Pennsylvania, USA
Distance from station: ENE 60mi, 96km
Updated: Wed, Jan-20-2021 12:54pm EST
Light snow, Overcast
Light snow, Overcast
 Wind from WNW
Wind: WNW 21 mph , 33 km/h, Gust: 28 mph , 44 km/h
Temperature: 23°F , -5°C
Wind Chill: 8°F , -13°C
Dew Point: 14°F , -10°C
Humidity: 68%
Barometer: 30.02 inHg , 1016.6 hPa
Summary: Light Snow
Clouds: Overcast
Visibility: 5 miles , 8 km
Cloud details: Partly cloudy 2100 ft
Mostly cloudy 2600 ft
Overcast 3200 ft
2021/01/20 17:54 KJST 201754Z AUTO 29018G24KT 5SM -SN SCT021 BKN026 OVC032 M05/M10 A3002 RMK AO2 PK WND 30026/1734 SNB14 SLP194 P0000 60000 T10501100 11033 21056 51011
KCBE - Cumberland Reg, Maryland, USA
Distance from station: ESE 72mi, 116km
Updated: Wed, Jan-20-2021 1:35pm EST
Overcast
Overcast
 Wind from NW
Wind: NW 17 mph , 28 km/h, Gust: 26 mph , 43 km/h
Temperature: 36°F , 2°C
Wind Chill: 26°F , -3°C
Dew Point: 18°F , -8°C
Humidity: 48%
Barometer: 30.13 inHg , 1020.3 hPa
Clouds: Overcast
Visibility: 10 miles , 16 km
Cloud details: Overcast 5000 ft
2021/01/20 18:35 KCBE 201835Z AUTO 32015G23KT 280V350 10SM OVC050 02/M08 A3013 RMK AO2 T00161082
 
KILG - Wilmington, Delaware, USA
Distance from station: ESE 234mi, 377km
Updated: Wed, Jan-20-2021 12:51pm EST
Partly cloudy
Partly cloudy
 Wind from NW
Wind: NW 26 mph , 43 km/h, Gust: 39 mph , 63 km/h
Temperature: 39°F , 4°C
Wind Chill: 28°F , -2°C
Dew Point: 19°F , -7°C
Humidity: 45%
Barometer: 29.98 inHg , 1015.2 hPa
Clouds: Partly cloudy
Visibility: 10 miles , 16 km
Cloud details: Few Clouds 5500 ft
Partly cloudy 7000 ft
2021/01/20 17:51 KILG 201751Z AUTO 31023G34KT 10SM FEW055 SCT070 04/M07 A2998 RMK AO2 PK WND 30034/1748 SLP152 T00441067 10067 20011 50002 $
KTUS - Tucson, Arizona, USA
Distance from station: WSW 1806mi, 3283km
Updated: Wed, Jan-20-2021 12:53pm EST
Clear
Clear
 Wind from ESE
Wind: ESE 18 mph , 30 km/h, Gust: 24 mph , 39 km/h
Temperature: 63°F , 17°C
Dew Point: 36°F , 2°C
Humidity: 37%
Barometer: 30.17 inHg , 1021.7 hPa
Clouds: Clear
Visibility: 10 miles , 16 km
2021/01/20 17:53 KTUS 201753Z 12016G21KT 10SM CLR 17/02 A3017 RMK AO2 SLP188 T01720022 10172 20117 50012